Time;durP1;ratioP1;P1;durP2;ratioP2;P2;SDS_P1;SDS_P2;PMS_P1;PMS_P2;Temp;Humidity;BMP_temperature;BMP_pressure;BME280_temperature;BME280_humidity;BME280_pressure;Samples;Min_cycle;Max_cycle;Signal;HPM_P1;HPM_P2
2022/11/24 00:02:24;;;;;;;;;;;;;;;15.81;76.07;100456.44;5095799;27;19911;-86
2022/11/24 00:04:49;;;;;;;;;;;;;;;15.84;76.15;100452.16;5115291;27;19922;-86
2022/11/24 00:07:15;;;;;;;;;;;;;;;15.85;76.19;100453.03;5133891;27;20338;-86
2022/11/24 00:09:40;;;;;;;;;;;;;;;15.87;75.89;100447.00;5110295;28;19916;-86
2022/11/24 00:12:06;;;;;;;;;;;;;;;15.85;75.68;100451.31;5105834;27;20376;-86
2022/11/24 00:14:31;;;;;;;;;;;;;;;15.83;75.98;100444.22;5112341;27;20377;-87
2022/11/24 00:16:56;;;;;;;;;;;;;;;15.85;75.85;100451.31;5099902;28;19926;-87
2022/11/24 00:19:22;;;;;;;;;;;;;;;15.82;75.90;100448.59;5119169;27;20320;-86
2022/11/24 00:21:47;;;;;;;;;;;;;;;15.86;75.83;100460.09;5114856;27;20377;-86
2022/11/24 00:24:13;;;;;;;;;;;;;;;15.86;75.90;100458.34;5101084;28;19919;-86
2022/11/24 00:26:38;;;;;;;;;;;;;;;15.83;75.82;100454.75;5094945;28;20425;-86
2022/11/24 00:29:05;;;;;;;;;;;;;;;15.86;75.79;100449.56;5103398;28;19912;-87
2022/11/24 00:31:32;;;;;;;;;;;;;;;15.85;75.89;100455.69;5084577;28;19912;-86
2022/11/24 00:33:59;;;;;;;;;;;;;;;15.85;75.75;100460.94;5095734;28;19949;-86
2022/11/24 00:36:25;;;;;;;;;;;;;;;15.85;75.78;100461.84;5111233;28;19916;-86
2022/11/24 00:38:54;;;;;;;;;;;;;;;15.85;75.70;100450.41;5111986;28;19920;-87
2022/11/24 00:41:20;;;;;;;;;;;;;;;15.86;75.89;100457.47;5097572;28;19912;-86
2022/11/24 00:43:45;;;;;;;;;;;;;;;15.84;75.81;100454.78;5111299;28;19919;-87
2022/11/24 00:46:11;;;;;;;;;;;;;;;15.83;75.77;100452.09;5107834;28;19939;-86
2022/11/24 00:48:37;;;;;;;;;;;;;;;15.82;75.78;100460.88;5102009;28;20364;-86
2022/11/24 00:51:04;;;;;;;;;;;;;;;15.83;75.73;100458.28;5111546;28;19951;-86
2022/11/24 00:53:29;;;;;;;;;;;;;;;15.81;75.96;100454.72;5102804;28;19916;-86
2022/11/24 00:55:55;;;;;;;;;;;;;;;15.83;75.62;100446.84;5095893;28;19923;-85
2022/11/24 00:58:21;;;;;;;;;;;;;;;15.80;75.92;100457.31;5094031;28;19926;-87
2022/11/24 01:00:46;;;;;;;;;;;;;;;15.80;75.71;100452.03;5110951;28;19911;-87
2022/11/24 01:03:12;;;;;;;;;;;;;;;15.77;75.84;100450.22;5096666;28;19919;-88
2022/11/24 01:05:38;;;;;;;;;;;;;;;15.80;75.84;100454.66;5111135;28;19912;-87
2022/11/24 01:08:03;;;;;;;;;;;;;;;15.76;75.78;100444.91;5094240;28;20304;-86
2022/11/24 01:10:29;;;;;;;;;;;;;;;15.77;75.73;100444.94;5110697;28;19915;-87
2022/11/24 01:12:54;;;;;;;;;;;;;;;15.77;75.89;100441.41;5110856;28;19993;-87
2022/11/24 01:15:20;;;;;;;;;;;;;;;15.77;75.72;100438.78;5097003;28;20393;-87
2022/11/24 01:17:45;;;;;;;;;;;;;;;15.76;75.81;100437.00;5128766;27;20307;-86
2022/11/24 01:20:11;;;;;;;;;;;;;;;15.77;75.76;100436.13;5131245;28;19915;-84
2022/11/24 01:22:41;;;;;;;;;;;;;;;15.77;75.82;100442.31;5127197;28;19915;-86
2022/11/24 01:25:06;;;;;;;;;;;;;;;15.76;75.73;100439.63;5130058;28;20007;-86
2022/11/24 01:27:32;;;;;;;;;;;;;;;15.76;75.58;100435.25;5114928;28;19959;-87
2022/11/24 01:29:57;;;;;;;;;;;;;;;15.76;75.61;100437.88;5129914;28;19964;-86
2022/11/24 01:32:23;;;;;;;;;;;;;;;15.76;75.68;100437.88;5099331;28;20393;-87
2022/11/24 01:34:48;;;;;;;;;;;;;;;15.74;75.71;100433.44;5116302;28;20395;-87
2022/11/24 01:37:14;;;;;;;;;;;;;;;15.73;75.71;100436.94;5100408;28;19916;-87
2022/11/24 01:39:39;;;;;;;;;;;;;;;15.75;75.63;100429.97;5114886;28;20404;-87
2022/11/24 01:42:05;;;;;;;;;;;;;;;15.74;75.49;100421.16;5100374;28;20290;-87
2022/11/24 01:44:30;;;;;;;;;;;;;;;15.75;75.61;100420.31;5105552;28;20006;-87
2022/11/24 01:47:06;;;;;;;;;;;;;;;15.73;75.46;100410.59;5101641;28;19919;-87
2022/11/24 01:49:46;;;;;;;;;;;;;;;15.73;75.63;100423.78;5101875;28;19920;-87
2022/11/24 01:52:14;;;;;;;;;;;;;;;15.73;75.48;100418.50;5114130;28;20372;-87
2022/11/24 01:54:45;;;;;;;;;;;;;;;15.73;75.49;100415.88;5114764;28;19912;-86
2022/11/24 01:57:37;;;;;;;;;;;;;;;15.71;75.53;100418.41;5097454;28;20424;-86
2022/11/24 02:00:09;;;;;;;;;;;;;;;15.70;75.48;100414.00;5105560;28;19919;-86
2022/11/24 02:02:34;;;;;;;;;;;;;;;15.71;75.52;100409.63;5108005;28;19972;-87
2022/11/24 02:05:04;;;;;;;;;;;;;;;15.74;75.39;100410.63;5115668;28;19912;-86
2022/11/24 02:07:30;;;;;;;;;;;;;;;15.72;75.43;100404.44;5082680;28;19912;-86
2022/11/24 02:09:58;;;;;;;;;;;;;;;15.71;75.46;100405.25;5115396;28;19912;-86
2022/11/24 02:12:23;;;;;;;;;;;;;;;15.72;75.48;100408.81;5104403;27;19934;-86
2022/11/24 02:14:48;;;;;;;;;;;;;;;15.68;75.37;100410.41;5127090;27;20405;-86
2022/11/24 02:17:14;;;;;;;;;;;;;;;15.67;75.41;100413.91;5115689;27;20475;-85
2022/11/24 02:19:42;;;;;;;;;;;;;;;15.70;75.27;100405.22;5114098;28;20388;-87
2022/11/24 02:22:14;;;;;;;;;;;;;;;15.72;75.12;100401.78;5109351;27;19933;-87
2022/11/24 02:24:49;;;;;;;;;;;;;;;15.70;75.07;100402.56;5106936;27;19911;-88
2022/11/24 02:27:15;;;;;;;;;;;;;;;15.67;75.35;100409.53;5132319;27;19911;-87
2022/11/24 02:29:40;;;;;;;;;;;;;;;15.65;75.34;100405.09;5134299;27;19934;-85
2022/11/24 02:32:06;;;;;;;;;;;;;;;15.67;75.33;100409.53;5088636;27;20374;-87
2022/11/24 02:34:31;;;;;;;;;;;;;;;15.64;75.36;100396.31;5125521;27;19915;-87
2022/11/24 02:36:57;;;;;;;;;;;;;;;15.70;75.13;100398.19;5114475;28;19923;-87
2022/11/24 02:39:22;;;;;;;;;;;;;;;15.68;75.32;100411.34;5090223;28;19919;-87
2022/11/24 02:41:52;;;;;;;;;;;;;;;15.65;75.50;100420.88;5107237;28;20385;-87
2022/11/24 02:44:17;;;;;;;;;;;;;;;15.66;75.17;100420.03;5104746;28;19912;-88
2022/11/24 02:46:42;;;;;;;;;;;;;;;15.65;75.25;100423.50;5113672;28;19923;-88
2022/11/24 02:49:08;;;;;;;;;;;;;;;15.64;75.27;100424.34;5113469;28;20402;-88
2022/11/24 02:51:33;;;;;;;;;;;;;;;15.69;75.07;100422.75;5104589;28;20412;-87
2022/11/24 02:53:59;;;;;;;;;;;;;;;15.66;74.98;100422.66;5109051;28;19960;-87
2022/11/24 02:56:25;;;;;;;;;;;;;;;15.64;75.21;100425.25;5106495;28;20396;-85
2022/11/24 02:58:50;;;;;;;;;;;;;;;15.64;75.03;100419.09;5106274;28;19935;-86
2022/11/24 03:01:16;;;;;;;;;;;;;;;15.66;74.93;100420.03;5113088;28;19912;-87
2022/11/24 03:03:41;;;;;;;;;;;;;;;15.63;74.93;100412.94;5114647;28;20483;-86
2022/11/24 03:06:06;;;;;;;;;;;;;;;15.63;75.17;100415.56;5097308;28;20337;-87
2022/11/24 03:08:32;;;;;;;;;;;;;;;15.66;74.92;100417.38;5102037;28;19919;-88
2022/11/24 03:10:57;;;;;;;;;;;;;;;15.66;75.04;100414.75;5113077;28;19916;-87
2022/11/24 03:13:23;;;;;;;;;;;;;;;15.65;74.81;100410.34;5092668;28;20373;-87
2022/11/24 03:15:48;;;;;;;;;;;;;;;15.63;75.11;100418.19;5103091;28;20454;-87
2022/11/24 03:18:13;;;;;;;;;;;;;;;15.64;75.06;100416.44;5113072;27;20391;-86
2022/11/24 03:20:39;;;;;;;;;;;;;;;15.63;74.91;100409.41;5143789;27;19911;-87
2022/11/24 03:23:04;;;;;;;;;;;;;;;15.58;75.00;100404.03;5116976;27;20003;-89
2022/11/24 03:25:30;;;;;;;;;;;;;;;15.63;75.00;100410.31;5129752;27;19933;-85
2022/11/24 03:27:56;;;;;;;;;;;;;;;15.64;74.76;100409.47;5137117;27;20483;-88
2022/11/24 03:30:22;;;;;;;;;;;;;;;15.62;74.85;100416.44;5123760;27;20323;-87
2022/11/24 03:32:49;;;;;;;;;;;;;;;15.58;75.00;100425.09;5122571;27;19912;-88
2022/11/24 03:35:15;;;;;;;;;;;;;;;15.57;74.90;100428.56;5115423;27;19919;-88
2022/11/24 03:37:40;;;;;;;;;;;;;;;15.56;75.05;100426.78;5120578;27;19915;-88
2022/11/24 03:40:06;;;;;;;;;;;;;;;15.55;75.05;100432.00;5121649;27;20499;-88
2022/11/24 03:42:31;;;;;;;;;;;;;;;15.54;75.02;100435.50;5109733;28;19916;-88
2022/11/24 03:44:57;;;;;;;;;;;;;;;15.50;75.20;100428.34;5124556;27;20323;-86
2022/11/24 03:47:22;;;;;;;;;;;;;;;15.57;74.95;100436.44;5131423;27;19916;-87
2022/11/24 03:49:48;;;;;;;;;;;;;;;15.56;74.89;100433.78;5122325;27;20415;-88
2022/11/24 03:52:14;;;;;;;;;;;;;;;15.55;74.86;100435.50;5134145;27;20372;-87
2022/11/24 03:54:41;;;;;;;;;;;;;;;15.58;74.92;100437.38;5115219;27;20354;-87
2022/11/24 03:57:06;;;;;;;;;;;;;;;15.56;75.05;100442.56;5115361;27;19946;-88
2022/11/24 03:59:32;;;;;;;;;;;;;;;15.54;74.83;100441.63;5113174;27;20363;-86
2022/11/24 04:01:57;;;;;;;;;;;;;;;15.55;74.83;100447.78;5114357;27;20014;-87
2022/11/24 04:04:23;;;;;;;;;;;;;;;15.57;74.80;100446.09;5111470;27;19922;-87
2022/11/24 04:06:48;;;;;;;;;;;;;;;15.56;74.71;100442.56;5113518;27;20415;-87
2022/11/24 04:09:13;;;;;;;;;;;;;;;15.57;74.70;100444.34;5113711;27;20293;-88
2022/11/24 04:14:23;;;;;;;;;;;;;;;15.57;74.64;100446.09;5129710;27;20398;-86
2022/11/24 04:16:48;;;;;;;;;;;;;;;15.54;74.64;100446.91;5105719;27;19919;-86
2022/11/24 04:19:14;;;;;;;;;;;;;;;15.55;74.57;100448.66;5112356;27;20405;-87
2022/11/24 04:21:39;;;;;;;;;;;;;;;15.57;74.67;100446.09;5101512;28;19939;-87
2022/11/24 04:24:05;;;;;;;;;;;;;;;15.58;74.68;100451.41;5116099;27;19919;-87
2022/11/24 04:26:30;;;;;;;;;;;;;;;15.56;74.55;100453.09;5115628;27;20401;-86
2022/11/24 04:28:56;;;;;;;;;;;;;;;15.59;74.57;100458.44;5107194;27;19911;-86
2022/11/24 04:31:21;;;;;;;;;;;;;;;15.58;74.63;100458.41;5099559;27;20385;-86
2022/11/24 04:33:46;;;;;;;;;;;;;;;15.56;74.65;100463.63;5105242;28;19915;-87
2022/11/24 04:36:12;;;;;;;;;;;;;;;15.54;74.69;100457.44;5099706;28;20505;-86
2022/11/24 04:38:37;;;;;;;;;;;;;;;15.53;74.82;100460.88;5112047;28;20010;-87
2022/11/24 04:41:03;;;;;;;;;;;;;;;15.55;74.57;100461.81;5098902;28;20326;-86
2022/11/24 04:43:29;;;;;;;;;;;;;;;15.51;74.61;100456.44;5111418;28;19912;-85
2022/11/24 04:45:54;;;;;;;;;;;;;;;15.58;74.49;100459.31;5106777;28;19950;-85
2022/11/24 04:48:19;;;;;;;;;;;;;;;15.58;74.45;100461.94;5101654;28;19912;-86
2022/11/24 04:50:45;;;;;;;;;;;;;;;15.56;74.48;100463.63;5110803;28;19974;-86
2022/11/24 04:53:10;;;;;;;;;;;;;;;15.52;74.63;100464.38;5112131;28;19917;-85
2022/11/24 04:55:39;;;;;;;;;;;;;;;15.56;74.42;100475.91;5096604;28;20393;-85
2022/11/24 04:58:07;;;;;;;;;;;;;;;15.53;74.54;100470.53;5111246;28;19919;-86
2022/11/24 05:00:33;;;;;;;;;;;;;;;15.55;74.52;100471.47;5112426;28;19934;-87
2022/11/24 05:02:58;;;;;;;;;;;;;;;15.54;74.41;100481.13;5107127;28;20392;-85
2022/11/24 05:05:24;;;;;;;;;;;;;;;15.52;74.49;100474.91;5103094;28;20416;-85
2022/11/24 05:07:49;;;;;;;;;;;;;;;15.48;74.65;100478.31;5109482;28;19927;-85
2022/11/24 05:12:59;;;;;;;;;;;;;;;15.48;74.56;100486.19;5122245;27;19954;-85
2022/11/24 05:15:24;;;;;;;;;;;;;;;15.49;74.43;100487.97;5122197;27;19950;-84
2022/11/24 05:17:52;;;;;;;;;;;;;;;15.51;74.51;100493.28;5138507;27;20413;-88
2022/11/24 05:20:18;;;;;;;;;;;;;;;15.49;74.54;100501.13;5113672;27;19961;-85
2022/11/24 05:22:43;;;;;;;;;;;;;;;15.51;74.36;100502.06;5082369;28;19968;-87
2022/11/24 05:25:09;;;;;;;;;;;;;;;15.48;74.47;100505.50;5094838;28;19915;-86
2022/11/24 05:27:34;;;;;;;;;;;;;;;15.53;74.35;100505.63;5120681;27;20006;-87
2022/11/24 05:30:06;;;;;;;;;;;;;;;15.50;74.46;100500.28;5102481;28;19968;-89
2022/11/24 05:35:35;;;;;;;;;;;;;;;15.51;74.42;100515.22;5142625;27;19918;-87
2022/11/24 05:38:06;;;;;;;;;;;;;;;15.45;74.43;100515.94;5112149;27;19911;-87
2022/11/24 05:40:41;;;;;;;;;;;;;;;15.45;74.32;100521.22;5143679;27;19920;-89
2022/11/24 05:43:11;;;;;;;;;;;;;;;15.45;74.37;100521.22;5124595;27;19911;-87
2022/11/24 05:45:37;;;;;;;;;;;;;;;15.47;74.29;100529.13;5099100;27;20009;-85
2022/11/24 05:48:04;;;;;;;;;;;;;;;15.47;74.35;100526.50;5136130;27;20406;-88
2022/11/24 05:50:29;;;;;;;;;;;;;;;15.42;74.42;100534.25;5097202;28;19911;-86
2022/11/24 05:52:55;;;;;;;;;;;;;;;15.45;74.36;100530.81;5120549;27;19922;-85
2022/11/24 05:55:20;;;;;;;;;;;;;;;15.45;74.32;100533.44;5138485;27;20362;-86
2022/11/24 05:57:48;;;;;;;;;;;;;;;15.44;74.40;100527.31;5125483;27;20482;-87
2022/11/24 06:00:16;;;;;;;;;;;;;;;15.42;74.32;100536.00;5110715;27;19919;-88
2022/11/24 06:02:42;;;;;;;;;;;;;;;15.41;74.56;100550.91;5094097;28;19915;-86
2022/11/24 06:05:10;;;;;;;;;;;;;;;15.43;74.36;100548.28;5120794;27;20002;-84
2022/11/24 06:07:36;;;;;;;;;;;;;;;15.45;74.21;100558.06;5125828;27;19975;-85
2022/11/24 06:10:01;;;;;;;;;;;;;;;15.40;74.37;100554.38;5114006;27;20452;-85
2022/11/24 06:12:26;;;;;;;;;;;;;;;15.42;74.40;100557.94;5103621;28;20296;-84
2022/11/24 06:14:53;;;;;;;;;;;;;;;15.39;74.32;100556.97;5102092;27;19922;-85
2022/11/24 06:17:18;;;;;;;;;;;;;;;15.45;74.23;100562.41;5118804;27;19919;-83
2022/11/24 06:19:46;;;;;;;;;;;;;;;15.42;74.10;100552.69;5107268;27;19938;-86
2022/11/24 06:22:12;;;;;;;;;;;;;;;15.40;74.43;100561.38;5120841;27;20410;-86
2022/11/24 06:24:37;;;;;;;;;;;;;;;15.39;74.37;100557.84;5131751;27;20014;-85
2022/11/24 06:27:02;;;;;;;;;;;;;;;15.42;74.35;100564.94;5117673;27;19972;-85
2022/11/24 06:29:31;;;;;;;;;;;;;;;15.35;74.49;100558.59;5138362;27;20274;-85
2022/11/24 06:31:57;;;;;;;;;;;;;;;15.38;74.39;100555.16;5101293;27;19976;-85
2022/11/24 06:34:23;;;;;;;;;;;;;;;15.39;74.21;100559.59;5124143;27;19911;-85
2022/11/24 06:36:48;;;;;;;;;;;;;;;15.39;74.28;100567.50;5141179;27;20399;-84
2022/11/24 06:39:15;;;;;;;;;;;;;;;15.38;74.36;100565.69;5123881;27;20565;-83
2022/11/24 06:41:40;;;;;;;;;;;;;;;15.36;74.40;100568.28;5154863;27;19915;-84
2022/11/24 06:44:07;;;;;;;;;;;;;;;15.38;74.31;100563.06;5098910;27;19918;-84
2022/11/24 06:46:32;;;;;;;;;;;;;;;15.34;74.39;100571.69;5139892;27;19918;-83
2022/11/24 06:48:58;;;;;;;;;;;;;;;15.37;74.16;100569.19;5135060;27;19971;-84
2022/11/24 06:51:25;;;;;;;;;;;;;;;15.32;74.40;100566.38;5111500;27;19911;-84
2022/11/24 06:53:50;;;;;;;;;;;;;;;15.33;74.23;100570.81;5134642;27;19912;-84
2022/11/24 06:56:17;;;;;;;;;;;;;;;15.24;74.82;100575.81;5126643;27;20002;-84
2022/11/24 06:58:43;;;;;;;;;;;;;;;15.33;74.27;100577.81;5111104;27;19915;-85
2022/11/24 07:01:12;;;;;;;;;;;;;;;15.32;74.46;100573.41;5135438;27;20364;-85
2022/11/24 07:03:39;;;;;;;;;;;;;;;15.28;74.48;100569.75;5120938;27;19951;-87
2022/11/24 07:06:04;;;;;;;;;;;;;;;15.32;74.33;100574.28;5150564;27;19979;-86
2022/11/24 07:08:30;;;;;;;;;;;;;;;15.34;74.22;100582.22;5115358;27;20388;-87
2022/11/24 07:10:55;;;;;;;;;;;;;;;15.32;74.20;100573.41;5115738;27;19919;-86
2022/11/24 07:13:20;;;;;;;;;;;;;;;15.32;74.23;100568.13;5136932;27;19911;-85
2022/11/24 07:15:46;;;;;;;;;;;;;;;15.30;74.38;100577.72;5146247;27;20464;-86
2022/11/24 07:18:11;;;;;;;;;;;;;;;15.24;74.57;100576.69;5121404;27;19919;-86
2022/11/24 07:20:37;;;;;;;;;;;;;;;15.22;74.67;100583.63;5105931;27;19919;-87
2022/11/24 07:23:02;;;;;;;;;;;;;;;15.22;74.73;100572.22;5147218;27;20384;-87
2022/11/24 07:25:27;;;;;;;;;;;;;;;15.30;74.47;100569.81;5144499;27;19911;-84
2022/11/24 07:27:56;;;;;;;;;;;;;;;15.22;74.60;100574.84;5121289;27;20377;-85
2022/11/24 07:30:22;;;;;;;;;;;;;;;15.23;74.58;100568.75;5126167;27;20435;-86
2022/11/24 07:32:47;;;;;;;;;;;;;;;15.25;74.37;100567.06;5104154;27;19917;-85
2022/11/24 07:35:12;;;;;;;;;;;;;;;15.23;74.52;100569.63;5133633;27;19920;-86
2022/11/24 07:37:38;;;;;;;;;;;;;;;15.26;74.52;100563.56;5134290;27;20385;-85
2022/11/24 07:40:04;;;;;;;;;;;;;;;15.30;74.31;100567.19;5133828;27;19972;-85
2022/11/24 07:42:29;;;;;;;;;;;;;;;15.24;74.64;100570.53;5114569;27;19915;-87
2022/11/24 07:44:54;;;;;;;;;;;;;;;15.27;74.23;100574.13;5133419;27;19965;-87
2022/11/24 07:47:20;;;;;;;;;;;;;;;15.26;74.34;100575.00;5131739;27;20440;-87
2022/11/24 07:49:45;;;;;;;;;;;;;;;15.27;74.27;100573.25;5132631;27;20380;-88
2022/11/24 07:52:11;;;;;;;;;;;;;;;15.29;74.11;100570.69;5115939;27;19911;-90
2022/11/24 07:54:36;;;;;;;;;;;;;;;15.27;74.22;100571.50;5081744;28;19916;-89
2022/11/24 07:57:01;;;;;;;;;;;;;;;15.31;74.12;100563.72;5125845;27;20428;-88
2022/11/24 07:59:27;;;;;;;;;;;;;;;15.26;74.27;100564.47;5115429;27;19988;-87
2022/11/24 08:01:52;;;;;;;;;;;;;;;15.23;74.45;100563.47;5123551;27;19912;-87
2022/11/24 08:04:19;;;;;;;;;;;;;;;15.21;74.41;100563.41;5099381;27;19938;-87
2022/11/24 08:06:44;;;;;;;;;;;;;;;15.24;74.43;100563.53;5096555;27;20349;-87
2022/11/24 08:09:09;;;;;;;;;;;;;;;15.22;74.54;100567.84;5115340;27;20440;-86
2022/11/24 08:11:35;;;;;;;;;;;;;;;15.23;74.56;100567.00;5113286;27;20010;-85
2022/11/24 08:14:00;;;;;;;;;;;;;;;15.22;74.51;100569.59;5133549;27;19962;-87
2022/11/24 08:16:26;;;;;;;;;;;;;;;15.23;74.29;100561.72;5082399;28;20022;-86
2022/11/24 08:18:52;;;;;;;;;;;;;;;15.22;74.48;100565.22;5113632;27;20461;-86
2022/11/24 08:21:18;;;;;;;;;;;;;;;15.27;74.51;100565.38;5111125;27;20381;-87
2022/11/24 08:23:43;;;;;;;;;;;;;;;15.21;74.48;100563.41;5102952;27;19911;-86
2022/11/24 08:26:10;;;;;;;;;;;;;;;15.16;74.69;100565.03;5121149;27;19912;-86
2022/11/24 08:28:37;;;;;;;;;;;;;;;15.16;74.87;100574.66;5121106;27;19915;-87
2022/11/24 08:31:06;;;;;;;;;;;;;;;15.13;75.04;100572.78;5108226;27;19916;-87
2022/11/24 08:33:31;;;;;;;;;;;;;;;15.16;74.78;100570.28;5091312;28;20285;-84
2022/11/24 08:36:12;;;;;;;;;;;;;;;15.18;74.79;100560.72;5111228;28;19972;-86
2022/11/24 08:38:37;;;;;;;;;;;;;;;15.19;74.78;100559.84;5105005;27;20002;-85
2022/11/24 08:41:04;;;;;;;;;;;;;;;15.16;75.06;100558.88;5112304;28;19998;-86
2022/11/24 08:43:29;;;;;;;;;;;;;;;15.19;74.74;100558.97;5124485;27;19923;-87
2022/11/24 08:45:58;;;;;;;;;;;;;;;15.11;75.23;100561.34;5118304;27;19916;-89
2022/11/24 08:48:23;;;;;;;;;;;;;;;15.08;75.23;100561.25;5106563;27;20304;-90
2022/11/24 08:50:50;;;;;;;;;;;;;;;15.18;74.88;100563.34;5099079;27;20168;-90
2022/11/24 08:53:16;;;;;;;;;;;;;;;15.23;74.81;100564.38;5121379;27;19998;-88
2022/11/24 08:55:41;;;;;;;;;;;;;;;15.21;74.63;100559.91;5124057;27;19939;-90
2022/11/24 08:58:07;;;;;;;;;;;;;;;15.18;75.04;100555.44;5091382;28;19998;-90
2022/11/24 09:00:32;;;;;;;;;;;;;;;15.18;74.88;100562.44;5123558;27;20006;-89
2022/11/24 09:02:58;;;;;;;;;;;;;;;15.17;74.94;100556.28;5120288;27;20286;-87
2022/11/24 09:05:24;;;;;;;;;;;;;;;15.22;74.74;100552.06;5116334;27;19911;-89
2022/11/24 09:07:50;;;;;;;;;;;;;;;15.25;74.84;100557.41;5121929;27;19920;-90
2022/11/24 09:10:16;;;;;;;;;;;;;;;15.12;75.15;100550.00;5120778;27;19951;-88
2022/11/24 09:12:45;;;;;;;;;;;;;;;15.12;75.20;100550.00;5103107;27;20360;-89
2022/11/24 09:15:12;;;;;;;;;;;;;;;15.16;74.91;100551.00;5118867;27;20002;-89
2022/11/24 09:17:38;;;;;;;;;;;;;;;15.13;74.97;100543.88;5098540;28;19930;-89
2022/11/24 09:20:04;;;;;;;;;;;;;;;15.11;75.30;100547.28;5099864;28;20347;-88
2022/11/24 09:22:30;;;;;;;;;;;;;;;15.15;75.04;100543.94;5109371;28;19941;-88
2022/11/24 09:24:56;;;;;;;;;;;;;;;15.13;75.13;100550.88;5085527;28;19916;-89
2022/11/24 09:27:21;;;;;;;;;;;;;;;15.16;74.94;100551.00;5112454;28;19923;-88
2022/11/24 09:29:47;;;;;;;;;;;;;;;15.11;75.64;100549.94;5111454;28;19918;-88
2022/11/24 09:32:13;;;;;;;;;;;;;;;15.17;75.31;100548.38;5095655;28;20068;-88
2022/11/24 09:34:38;;;;;;;;;;;;;;;15.14;75.28;100540.41;5109095;28;19924;-89
2022/11/24 09:37:05;;;;;;;;;;;;;;;15.18;75.34;100538.78;5109035;28;20006;-89
2022/11/24 09:39:31;;;;;;;;;;;;;;;15.16;75.55;100538.72;5102616;28;19939;-89
2022/11/24 09:41:57;;;;;;;;;;;;;;;15.15;75.71;100538.66;5092844;28;20057;-89
2022/11/24 09:44:44;;;;;;;;;;;;;;;15.24;75.19;100542.50;5110527;28;20048;-89
2022/11/24 09:47:28;;;;;;;;;;;;;;;15.13;76.16;100535.97;5109670;28;19996;-88
2022/11/24 09:49:57;;;;;;;;;;;;;;;15.19;76.00;100543.19;5094427;28;19954;-88
2022/11/24 09:52:33;;;;;;;;;;;;;;;15.22;75.80;100538.03;5109628;28;20380;-89
2022/11/24 09:54:59;;;;;;;;;;;;;;;15.22;75.64;100533.66;5108323;28;19920;-88
2022/11/24 09:57:24;;;;;;;;;;;;;;;15.26;75.41;100538.16;5096682;28;20301;-87
2022/11/24 09:59:50;;;;;;;;;;;;;;;15.27;75.64;100529.41;5100701;28;19915;-86
2022/11/24 10:02:15;;;;;;;;;;;;;;;15.32;75.35;100540.06;5130095;27;20389;-88
2022/11/24 10:04:41;;;;;;;;;;;;;;;15.24;76.12;100536.34;5096255;27;19912;-88
2022/11/24 10:07:10;;;;;;;;;;;;;;;15.22;76.24;100535.41;5093647;28;20297;-87
2022/11/24 10:09:39;;;;;;;;;;;;;;;15.20;76.34;100544.97;5111162;28;20282;-87
2022/11/24 10:12:04;;;;;;;;;;;;;;;15.15;76.62;100539.56;5114159;28;20384;-88
2022/11/24 10:14:52;;;;;;;;;;;;;;;15.16;76.88;100540.47;5105355;28;19996;-88
2022/11/24 10:17:20;;;;;;;;;;;;;;;15.22;76.66;100545.91;5107480;28;19928;-88
2022/11/24 10:19:49;;;;;;;;;;;;;;;15.18;76.60;100542.28;5123945;27;19954;-90
2022/11/24 10:22:14;;;;;;;;;;;;;;;15.22;76.58;100544.19;5123796;27;19973;-88
2022/11/24 10:24:44;;;;;;;;;;;;;;;15.30;76.40;100543.50;5113511;27;20289;-89
2022/11/24 10:27:21;;;;;;;;;;;;;;;15.34;76.37;100546.28;5128514;27;20006;-88
2022/11/24 10:29:50;;;;;;;;;;;;;;;15.34;76.30;100543.66;5122985;27;19915;-88
2022/11/24 10:32:34;;;;;;;;;;;;;;;15.39;76.01;100542.06;5104929;27;19999;-88
2022/11/24 10:35:05;;;;;;;;;;;;;;;15.34;76.47;100543.66;5106374;28;19912;-87
2022/11/24 10:37:33;;;;;;;;;;;;;;;15.37;76.27;100545.50;5090816;28;20305;-89
2022/11/24 10:40:28;;;;;;;;;;;;;;;15.46;76.07;100540.50;5093578;28;19941;-87
2022/11/24 10:42:53;;;;;;;;;;;;;;;15.34;76.63;100541.00;5093491;28;20010;-87
2022/11/24 10:45:21;;;;;;;;;;;;;;;15.34;76.51;100551.53;5107153;28;19946;-89
2022/11/24 10:47:46;;;;;;;;;;;;;;;15.45;75.85;100546.59;5093053;28;19919;-88
2022/11/24 10:50:12;;;;;;;;;;;;;;;15.47;75.85;100540.56;5105270;28;19913;-88
2022/11/24 10:53:01;;;;;;;;;;;;;;;15.37;76.73;100545.50;5100345;28;19964;-88
2022/11/24 10:55:45;;;;;;;;;;;;;;;15.39;76.23;100546.44;5104260;28;19919;-88
2022/11/24 10:58:14;;;;;;;;;;;;;;;15.40;76.50;100543.84;5101700;28;19951;-88
2022/11/24 11:00:41;;;;;;;;;;;;;;;15.41;76.69;100544.75;5112617;28;19959;-90
2022/11/24 11:03:16;;;;;;;;;;;;;;;15.43;76.34;100546.59;5081751;28;19912;-89
2022/11/24 11:05:47;;;;;;;;;;;;;;;15.40;76.56;100542.97;5106316;28;19951;-89
2022/11/24 11:08:12;;;;;;;;;;;;;;;15.38;76.68;100544.66;5095810;28;19912;-88
2022/11/24 11:10:39;;;;;;;;;;;;;;;15.46;76.50;100558.94;5113080;28;20285;-88
2022/11/24 11:13:25;;;;;;;;;;;;;;;15.45;76.14;100551.88;5108854;28;19912;-90
2022/11/24 11:15:50;;;;;;;;;;;;;;;15.58;75.61;100548.78;5102158;28;19920;-91
2022/11/24 11:18:17;;;;;;;;;;;;;;;15.50;75.98;100545.03;5112162;27;20441;-90
2022/11/24 11:20:51;;;;;;;;;;;;;;;15.52;75.60;100551.22;5101335;27;19949;-91
2022/11/24 11:23:25;;;;;;;;;;;;;;;15.44;76.21;100537.81;5104216;28;19919;-90
2022/11/24 11:25:50;;;;;;;;;;;;;;;15.42;76.24;100546.53;5111188;27;19926;-90
2022/11/24 11:28:15;;;;;;;;;;;;;;;15.39;76.31;100546.44;5105432;27;19914;-87
2022/11/24 11:30:41;;;;;;;;;;;;;;;15.47;76.07;100547.53;5129850;27;20450;-88
2022/11/24 11:33:17;;;;;;;;;;;;;;;15.45;75.99;100554.50;5095718;28;19915;-87
2022/11/24 11:35:42;;;;;;;;;;;;;;;15.56;75.61;100558.38;5128386;27;19915;-87
2022/11/24 11:38:08;;;;;;;;;;;;;;;15.41;76.15;100561.44;5102468;27;19979;-87
2022/11/24 11:40:34;;;;;;;;;;;;;;;15.61;75.36;100569.03;5128227;27;19922;-87
2022/11/24 11:43:01;;;;;;;;;;;;;;;15.49;75.91;100569.53;5134185;27;19915;-85
2022/11/24 11:45:37;;;;;;;;;;;;;;;15.45;76.02;100578.19;5104253;27;19915;-86
2022/11/24 11:48:02;;;;;;;;;;;;;;;15.46;75.80;100578.25;5130192;27;19954;-83
2022/11/24 11:50:33;;;;;;;;;;;;;;;15.45;76.01;100580.81;5152533;27;19948;-87
2022/11/24 11:53:16;;;;;;;;;;;;;;;15.45;75.90;100586.09;5112457;27;19915;-87
2022/11/24 11:55:43;;;;;;;;;;;;;;;15.39;76.02;100591.19;5136269;27;19915;-87
2022/11/24 11:58:28;;;;;;;;;;;;;;;15.34;76.14;100587.50;5121765;27;19922;-87
2022/11/24 12:01:03;;;;;;;;;;;;;;;15.37;76.19;100587.59;5129205;27;19943;-86
2022/11/24 12:03:44;;;;;;;;;;;;;;;15.31;76.74;100598.81;5089971;27;19988;-88
2022/11/24 12:06:09;;;;;;;;;;;;;;;15.40;76.30;100591.19;5096449;27;20006;-86
2022/11/24 12:08:39;;;;;;;;;;;;;;;15.35;76.36;100595.44;5130657;27;19951;-86
2022/11/24 12:11:07;;;;;;;;;;;;;;;15.48;75.96;100594.97;5106806;27;19911;-86
2022/11/24 12:13:47;;;;;;;;;;;;;;;15.47;75.89;100592.28;5084324;27;19915;-86
2022/11/24 12:16:13;;;;;;;;;;;;;;;15.38;76.39;100602.53;5123157;27;20015;-87
2022/11/24 12:18:42;;;;;;;;;;;;;;;15.53;75.59;100608.28;5126313;27;19959;-86
2022/11/24 12:21:18;;;;;;;;;;;;;;;15.48;75.73;100605.50;5113556;27;19915;-87
2022/11/24 12:23:51;;;;;;;;;;;;;;;15.55;75.46;100611.84;5129420;27;19960;-86
2022/11/24 12:26:35;;;;;;;;;;;;;;;15.50;75.50;100609.94;5131801;27;19922;-86
2022/11/24 12:29:05;;;;;;;;;;;;;;;15.43;75.98;100611.44;5114480;27;19920;-87
2022/11/24 12:31:57;;;;;;;;;;;;;;;15.49;75.69;100627.44;5108696;27;20002;-84
2022/11/24 12:34:25;;;;;;;;;;;;;;;15.35;76.30;100624.38;5108157;27;20029;-85
2022/11/24 12:37:09;;;;;;;;;;;;;;;15.37;76.48;100621.81;5114682;27;19972;-85
2022/11/24 12:39:35;;;;;;;;;;;;;;;15.34;76.66;100617.31;5112221;27;19972;-85
2022/11/24 12:42:04;;;;;;;;;;;;;;;15.35;76.49;100618.22;5131630;27;19923;-85
2022/11/24 12:44:29;;;;;;;;;;;;;;;15.37;76.33;100612.16;5111824;27;19915;-85
2022/11/24 12:47:04;;;;;;;;;;;;;;;15.36;76.48;100615.63;5133346;27;19911;-85